createdAt,value
2022-09-29T00:00:22.890Z,9.65
2022-09-29T00:03:24.776Z,9.67
2022-09-29T00:06:26.427Z,9.73
2022-09-29T00:09:28.040Z,9.75
2022-09-29T00:12:29.587Z,9.76
2022-09-29T00:15:31.212Z,9.76
2022-09-29T00:18:33.126Z,9.77
2022-09-29T00:21:34.685Z,9.75
2022-09-29T00:24:36.242Z,9.75
2022-09-29T00:27:37.965Z,9.71
2022-09-29T00:30:39.530Z,9.68
2022-09-29T00:33:41.291Z,9.68
2022-09-29T00:36:42.806Z,9.68
2022-09-29T00:39:44.368Z,9.61
2022-09-29T00:42:45.935Z,9.60
2022-09-29T00:45:47.635Z,9.58
2022-09-29T00:48:49.227Z,9.60
2022-09-29T00:51:58.405Z,9.58
2022-09-29T00:55:06.099Z,9.63
2022-09-29T00:58:09.266Z,9.66
2022-09-29T01:01:11.633Z,9.65
2022-09-29T01:04:14.551Z,9.63
2022-09-29T01:07:16.143Z,9.65
2022-09-29T01:10:17.798Z,9.59
2022-09-29T01:13:19.487Z,9.62
2022-09-29T01:16:21.097Z,9.60
2022-09-29T01:19:41.115Z,9.64
2022-09-29T01:23:01.138Z,9.65
2022-09-29T01:26:21.519Z,9.63
2022-09-29T01:29:41.581Z,9.58
2022-09-29T01:32:58.262Z,9.57
2022-09-29T01:36:02.611Z,9.60
2022-09-29T01:39:13.341Z,9.63
2022-09-29T01:42:14.873Z,9.65
2022-09-29T01:45:18.533Z,9.70
2022-09-29T01:48:22.625Z,9.77
2022-09-29T01:51:56.790Z,9.78
2022-09-29T01:54:59.724Z,9.79
2022-09-29T01:58:02.392Z,9.71
2022-09-29T02:01:09.834Z,9.68
2022-09-29T02:04:13.658Z,9.66
2022-09-29T02:07:17.255Z,9.55
2022-09-29T02:10:29.930Z,9.49
2022-09-29T02:13:46.837Z,9.48
2022-09-29T02:16:49.218Z,9.52
2022-09-29T02:19:51.486Z,9.54
2022-09-29T02:22:53.047Z,9.58
2022-09-29T02:25:54.629Z,9.67
2022-09-29T02:28:56.245Z,9.75
2022-09-29T02:32:01.424Z,9.75
2022-09-29T02:35:07.008Z,9.79
2022-09-29T02:38:14.932Z,9.86
2022-09-29T02:41:26.769Z,9.91
2022-09-29T02:44:57.717Z,9.96
2022-09-29T02:47:59.169Z,10.03
2022-09-29T02:51:07.683Z,10.06
2022-09-29T02:54:35.429Z,10.11
2022-09-29T02:57:36.936Z,10.10
2022-09-29T03:00:38.535Z,10.14
2022-09-29T03:03:40.237Z,10.17
2022-09-29T03:06:41.842Z,10.16
2022-09-29T03:09:44.570Z,10.16
2022-09-29T03:12:47.354Z,10.18
2022-09-29T03:15:49.021Z,10.19
2022-09-29T03:18:50.928Z,10.22
2022-09-29T03:21:52.587Z,10.25
2022-09-29T03:24:54.121Z,10.24
2022-09-29T03:27:55.648Z,10.27
2022-09-29T03:30:57.191Z,10.26
2022-09-29T03:33:58.750Z,10.24
2022-09-29T03:37:00.385Z,10.26
2022-09-29T03:40:02.319Z,10.21
2022-09-29T03:43:03.898Z,10.21
2022-09-29T03:46:06.106Z,10.22
2022-09-29T03:49:10.020Z,10.21
2022-09-29T03:52:11.869Z,10.21
2022-09-29T03:55:13.418Z,10.21
2022-09-29T03:58:15.358Z,10.15
2022-09-29T04:01:16.979Z,10.12
2022-09-29T04:04:18.604Z,10.10
2022-09-29T04:07:20.129Z,10.13
2022-09-29T04:10:21.954Z,10.13
2022-09-29T04:13:23.496Z,10.12
2022-09-29T04:16:25.102Z,10.10
2022-09-29T04:19:26.701Z,10.04
2022-09-29T04:22:28.281Z,10.02
2022-09-29T04:25:29.912Z,10.01
2022-09-29T04:28:32.158Z,10.04
2022-09-29T04:31:33.796Z,10.05
2022-09-29T04:34:35.408Z,10.10
2022-09-29T04:37:37.065Z,10.09
2022-09-29T04:40:38.827Z,10.12
2022-09-29T04:43:40.393Z,10.10
2022-09-29T04:46:42.429Z,10.15
2022-09-29T04:49:43.972Z,10.17
2022-09-29T04:52:45.566Z,10.19
2022-09-29T04:55:47.122Z,10.17
2022-09-29T04:58:48.729Z,10.20
2022-09-29T05:01:50.340Z,10.20
2022-09-29T05:04:51.964Z,10.19
2022-09-29T05:07:53.524Z,10.14
2022-09-29T05:10:55.085Z,10.12
2022-09-29T05:13:56.786Z,10.12
2022-09-29T05:16:58.465Z,10.11
2022-09-29T05:20:00.086Z,10.10
2022-09-29T05:23:01.675Z,10.10
2022-09-29T05:26:04.091Z,10.13
2022-09-29T05:29:05.647Z,10.18
2022-09-29T05:32:07.207Z,10.29
2022-09-29T05:35:09.077Z,10.36
2022-09-29T05:38:10.606Z,10.53
2022-09-29T05:41:12.586Z,10.54
2022-09-29T05:44:14.143Z,10.55
2022-09-29T05:47:15.737Z,10.48
2022-09-29T05:50:17.286Z,10.45
2022-09-29T05:53:18.858Z,10.42
2022-09-29T05:56:21.524Z,10.52
2022-09-29T05:59:23.299Z,10.47
2022-09-29T06:02:24.879Z,10.39
2022-09-29T06:05:26.984Z,10.36
2022-09-29T06:08:28.546Z,10.39
2022-09-29T06:11:33.632Z,10.40
2022-09-29T06:14:35.183Z,10.43
2022-09-29T06:17:36.931Z,10.37
2022-09-29T06:20:38.538Z,10.41
2022-09-29T06:23:40.442Z,10.44
2022-09-29T06:26:41.977Z,10.43
2022-09-29T06:29:43.526Z,10.44
2022-09-29T06:32:45.069Z,10.45
2022-09-29T06:36:05.778Z,10.44
2022-09-29T06:39:07.977Z,10.44
2022-09-29T06:42:09.526Z,10.44
2022-09-29T06:45:11.113Z,10.41
2022-09-29T06:48:12.624Z,10.49
2022-09-29T06:51:14.918Z,10.44
2022-09-29T06:54:17.942Z,10.51
2022-09-29T06:57:19.465Z,10.55
2022-09-29T07:00:21.023Z,10.69
2022-09-29T07:03:22.574Z,10.69
2022-09-29T07:06:24.131Z,10.77
2022-09-29T07:09:25.666Z,10.79
2022-09-29T07:12:27.144Z,10.81
2022-09-29T07:15:31.869Z,10.75
2022-09-29T07:18:37.821Z,10.75
2022-09-29T07:21:39.417Z,10.81
2022-09-29T07:24:40.934Z,10.87
2022-09-29T07:27:42.483Z,10.91
2022-09-29T07:30:44.552Z,11.03
2022-09-29T07:33:47.395Z,11.12
2022-09-29T07:36:49.123Z,11.23
2022-09-29T07:39:50.844Z,11.38
2022-09-29T07:42:52.365Z,11.44
2022-09-29T07:45:53.895Z,11.51
2022-09-29T07:48:55.448Z,11.46
2022-09-29T07:51:56.949Z,11.52
2022-09-29T07:54:58.521Z,11.62
2022-09-29T07:58:01.350Z,11.45
2022-09-29T08:01:05.376Z,11.32
2022-09-29T08:04:06.970Z,11.25
2022-09-29T08:07:08.681Z,11.30
2022-09-29T08:10:17.081Z,11.32
2022-09-29T08:13:19.354Z,11.28
2022-09-29T08:16:21.041Z,11.36
2022-09-29T08:19:22.705Z,11.32
2022-09-29T08:22:24.247Z,11.36
2022-09-29T08:25:26.258Z,11.36
2022-09-29T08:28:31.908Z,11.35
2022-09-29T08:31:34.336Z,11.40
2022-09-29T08:34:36.681Z,11.42
2022-09-29T08:37:38.906Z,11.48
2022-09-29T08:40:40.518Z,11.56
2022-09-29T08:43:42.540Z,11.64
2022-09-29T08:47:03.177Z,11.70
2022-09-29T08:50:12.654Z,11.75
2022-09-29T08:53:25.805Z,11.68
2022-09-29T08:56:29.449Z,11.71
2022-09-29T08:59:31.339Z,11.65
2022-09-29T09:02:56.324Z,11.67
2022-09-29T09:06:11.149Z,11.79
2022-09-29T09:09:19.002Z,11.89
2022-09-29T09:12:20.541Z,12.01
2022-09-29T09:15:25.129Z,12.00
2022-09-29T09:18:47.802Z,12.03
2022-09-29T09:21:51.749Z,12.00
2022-09-29T09:24:56.865Z,12.06
2022-09-29T09:28:24.464Z,11.99
2022-09-29T09:31:46.197Z,12.11
2022-09-29T09:34:56.619Z,12.29
2022-09-29T09:38:04.690Z,12.46
2022-09-29T09:41:06.521Z,12.47
2022-09-29T09:44:13.833Z,12.42
2022-09-29T09:47:23.697Z,12.47
2022-09-29T09:50:25.410Z,12.71
2022-09-29T09:53:33.499Z,12.89
2022-09-29T09:56:36.091Z,12.89
2022-09-29T09:59:56.522Z,12.83
2022-09-29T10:03:01.550Z,12.89
2022-09-29T10:06:03.686Z,12.92
2022-09-29T10:09:05.267Z,12.77
2022-09-29T10:12:08.265Z,12.80
2022-09-29T10:15:28.931Z,12.77
2022-09-29T10:18:30.588Z,12.79
2022-09-29T10:21:32.146Z,12.84
2022-09-29T10:24:33.750Z,12.99
2022-09-29T10:27:35.379Z,12.95
2022-09-29T10:30:36.975Z,12.90
2022-09-29T10:33:38.538Z,12.81
2022-09-29T10:36:49.209Z,12.81
2022-09-29T10:39:51.033Z,12.71
2022-09-29T10:42:53.499Z,12.66
2022-09-29T10:45:58.650Z,12.66
2022-09-29T10:49:10.018Z,12.62
2022-09-29T10:52:25.231Z,12.79
2022-09-29T10:55:27.705Z,13.30
2022-09-29T10:58:58.518Z,13.48
2022-09-29T11:01:55.859Z,13.52
2022-09-29T11:04:58.616Z,14.16
2022-09-29T11:08:00.202Z,14.35
2022-09-29T11:11:04.802Z,14.06
2022-09-29T11:14:06.538Z,14.05
2022-09-29T11:17:31.453Z,13.78
2022-09-29T11:20:34.242Z,13.57
2022-09-29T11:23:56.034Z,13.42
2022-09-29T11:27:16.315Z,13.52
2022-09-29T11:30:21.175Z,13.55
2022-09-29T11:33:22.685Z,13.59
2022-09-29T11:36:27.472Z,13.65
2022-09-29T11:39:48.119Z,13.60
2022-09-29T11:42:55.535Z,13.59
2022-09-29T11:46:15.630Z,14.22
2022-09-29T11:49:27.930Z,15.11
2022-09-29T11:52:29.423Z,14.47
2022-09-29T11:55:49.566Z,14.12
2022-09-29T11:58:57.861Z,13.82
2022-09-29T12:02:08.515Z,13.80
2022-09-29T12:05:23.298Z,14.09
2022-09-29T12:08:24.816Z,14.20
2022-09-29T12:12:11.569Z,14.25
2022-09-29T12:15:41.133Z,15.06
2022-09-29T12:18:50.146Z,16.03
2022-09-29T12:21:52.508Z,15.71
2022-09-29T12:24:54.857Z,14.98
2022-09-29T12:28:16.627Z,14.48
2022-09-29T12:31:23.130Z,14.32
2022-09-29T12:34:38.787Z,15.06
2022-09-29T12:37:48.461Z,16.22
2022-09-29T12:40:58.080Z,16.22
2022-09-29T12:44:16.267Z,16.09
2022-09-29T12:47:36.766Z,16.93
2022-09-29T12:50:57.227Z,15.85
2022-09-29T12:53:58.826Z,17.09
2022-09-29T12:57:09.665Z,18.49
2022-09-29T13:00:14.607Z,17.48
2022-09-29T13:03:16.136Z,16.05
2022-09-29T13:06:20.478Z,15.23
2022-09-29T13:09:31.674Z,14.73
2022-09-29T13:12:56.664Z,14.52
2022-09-29T13:16:01.849Z,14.50
2022-09-29T13:19:22.884Z,14.61
2022-09-29T13:22:34.021Z,16.34
2022-09-29T13:25:41.632Z,15.91
2022-09-29T13:28:44.489Z,16.80
2022-09-29T13:31:46.565Z,17.05
2022-09-29T13:34:49.768Z,16.75
2022-09-29T13:38:02.105Z,16.00
2022-09-29T13:41:15.307Z,16.56
2022-09-29T13:44:16.910Z,18.46
2022-09-29T13:47:31.802Z,19.68
2022-09-29T13:50:45.663Z,17.49
2022-09-29T13:53:47.426Z,16.45
2022-09-29T13:56:49.796Z,15.65
2022-09-29T13:59:57.174Z,15.10
2022-09-29T14:03:05.514Z,14.80
2022-09-29T14:06:39.641Z,14.76
2022-09-29T14:09:44.160Z,17.63
2022-09-29T14:12:50.256Z,19.18
2022-09-29T14:15:54.592Z,20.16
2022-09-29T14:19:07.767Z,19.63
2022-09-29T14:22:28.136Z,17.99
2022-09-29T14:25:31.295Z,19.74
2022-09-29T14:28:35.377Z,20.74
2022-09-29T14:31:36.911Z,19.17
2022-09-29T14:34:39.329Z,17.43
2022-09-29T14:37:40.883Z,16.43
2022-09-29T14:41:00.702Z,15.93
2022-09-29T14:44:08.914Z,15.40
2022-09-29T14:47:35.218Z,15.56
2022-09-29T14:51:12.242Z,17.59
2022-09-29T14:54:32.922Z,19.21
2022-09-29T14:57:46.678Z,17.83
2022-09-29T15:00:51.617Z,16.39
2022-09-29T15:03:53.783Z,15.46
2022-09-29T15:06:55.349Z,15.11
2022-09-29T15:09:58.185Z,14.63
2022-09-29T15:13:16.374Z,14.24
2022-09-29T15:16:21.240Z,14.08
2022-09-29T15:19:23.661Z,14.24
2022-09-29T15:22:45.552Z,16.64
2022-09-29T15:25:47.280Z,18.41
2022-09-29T15:28:49.451Z,18.80
2022-09-29T15:31:50.953Z,19.59
2022-09-29T15:34:56.028Z,18.70
2022-09-29T15:38:18.212Z,16.87
2022-09-29T15:41:20.566Z,15.96
2022-09-29T15:44:22.265Z,15.61
2022-09-29T15:47:28.385Z,15.64
2022-09-29T15:50:35.691Z,17.68
2022-09-29T15:53:39.141Z,18.88
2022-09-29T15:56:58.904Z,19.47
2022-09-29T16:00:03.613Z,19.69
2022-09-29T16:03:30.258Z,20.06
2022-09-29T16:06:32.624Z,19.74
2022-09-29T16:09:34.197Z,19.59
2022-09-29T16:12:39.459Z,19.17
2022-09-29T16:15:45.045Z,19.21
2022-09-29T16:18:47.094Z,19.02
2022-09-29T16:21:56.149Z,18.82
2022-09-29T16:25:16.502Z,18.05
2022-09-29T16:28:25.185Z,17.22
2022-09-29T16:31:27.528Z,18.41
2022-09-29T16:34:30.285Z,19.37
2022-09-29T16:37:31.803Z,19.56
2022-09-29T16:40:33.734Z,19.79
2022-09-29T16:43:35.341Z,19.80
2022-09-29T16:46:49.190Z,19.18
2022-09-29T16:49:54.205Z,18.67
2022-09-29T16:52:55.864Z,18.22
2022-09-29T16:56:01.279Z,18.14
2022-09-29T16:59:08.706Z,16.74
2022-09-29T17:02:10.572Z,16.17
2022-09-29T17:05:12.130Z,16.58
2022-09-29T17:08:16.509Z,16.86
2022-09-29T17:11:18.131Z,16.96
2022-09-29T17:14:21.513Z,16.89
2022-09-29T17:17:23.686Z,16.53
2022-09-29T17:20:29.967Z,15.88
2022-09-29T17:23:44.128Z,14.60
2022-09-29T17:27:04.523Z,13.91
2022-09-29T17:30:06.326Z,13.29
2022-09-29T17:33:09.790Z,12.98
2022-09-29T17:36:12.567Z,12.82
2022-09-29T17:39:14.125Z,12.58
2022-09-29T17:42:15.633Z,12.35
2022-09-29T17:45:19.097Z,12.10
2022-09-29T17:48:20.608Z,11.85
2022-09-29T17:51:22.166Z,11.64
2022-09-29T17:54:27.131Z,11.38
2022-09-29T17:57:29.036Z,11.21
2022-09-29T18:00:40.227Z,11.09
2022-09-29T18:03:42.287Z,10.98
2022-09-29T18:06:44.543Z,10.89
2022-09-29T18:09:47.248Z,10.82
2022-09-29T18:12:48.999Z,10.79
2022-09-29T18:15:50.764Z,10.69
2022-09-29T18:18:58.000Z,10.65
2022-09-29T18:22:01.339Z,10.57
2022-09-29T18:25:03.272Z,10.55
2022-09-29T18:28:04.817Z,10.44
2022-09-29T18:31:12.267Z,10.34
2022-09-29T18:34:18.142Z,10.30
2022-09-29T18:37:19.791Z,10.21
2022-09-29T18:40:22.220Z,10.17
2022-09-29T18:43:25.991Z,10.17
2022-09-29T18:46:29.883Z,10.18
2022-09-29T18:49:31.639Z,10.19
2022-09-29T18:52:34.206Z,10.19
2022-09-29T18:55:35.771Z,10.17
2022-09-29T18:58:38.161Z,10.22
2022-09-29T19:01:39.959Z,10.18
2022-09-29T19:04:41.744Z,10.09
2022-09-29T19:07:43.769Z,10.02
2022-09-29T19:10:49.070Z,9.98
2022-09-29T19:13:52.485Z,9.94
2022-09-29T19:16:55.154Z,9.95
2022-09-29T19:20:00.514Z,9.96
2022-09-29T19:23:05.674Z,9.93
2022-09-29T19:26:11.464Z,9.88
2022-09-29T19:29:13.026Z,9.87
2022-09-29T19:32:14.620Z,9.85
2022-09-29T19:35:17.116Z,9.79
2022-09-29T19:38:18.852Z,9.81
2022-09-29T19:41:21.813Z,9.87
2022-09-29T19:44:23.425Z,9.82
2022-09-29T19:47:25.102Z,9.81
2022-09-29T19:50:45.559Z,9.88
2022-09-29T19:53:49.499Z,9.90
2022-09-29T19:56:52.392Z,9.87
2022-09-29T19:59:54.237Z,9.83
2022-09-29T20:02:55.862Z,9.69
2022-09-29T20:06:01.223Z,9.63
2022-09-29T20:09:03.797Z,9.63
2022-09-29T20:12:05.358Z,9.68
2022-09-29T20:15:07.410Z,9.81
2022-09-29T20:18:08.904Z,9.85
2022-09-29T20:21:11.895Z,9.83
2022-09-29T20:24:14.574Z,9.74
2022-09-29T20:27:16.189Z,9.64
2022-09-29T20:30:20.725Z,9.54
2022-09-29T20:33:23.522Z,9.53
2022-09-29T20:36:25.341Z,9.40
2022-09-29T20:39:26.883Z,9.44
2022-09-29T20:42:28.714Z,9.57
2022-09-29T20:45:30.213Z,9.63
2022-09-29T20:48:32.223Z,9.63
2022-09-29T20:51:37.234Z,9.55
2022-09-29T20:54:39.691Z,9.49
2022-09-29T20:57:46.027Z,9.40
2022-09-29T21:00:47.901Z,9.45
2022-09-29T21:03:59.301Z,9.52
2022-09-29T21:07:00.944Z,9.55
2022-09-29T21:10:03.955Z,9.61
2022-09-29T21:13:05.451Z,9.62
2022-09-29T21:16:07.094Z,9.59
2022-09-29T21:19:09.239Z,9.69
2022-09-29T21:22:11.484Z,9.81
2022-09-29T21:25:13.223Z,9.89
2022-09-29T21:28:14.771Z,9.93
2022-09-29T21:31:17.523Z,10.03
2022-09-29T21:34:19.234Z,10.08
2022-09-29T21:37:20.925Z,10.10
2022-09-29T21:40:24.998Z,10.04
2022-09-29T21:43:26.867Z,9.99
2022-09-29T21:46:29.647Z,9.88
2022-09-29T21:49:31.186Z,9.70
2022-09-29T21:52:36.007Z,9.55
2022-09-29T21:55:41.004Z,9.37
2022-09-29T21:58:42.998Z,9.27
2022-09-29T22:01:45.153Z,9.25
2022-09-29T22:04:46.849Z,9.28
2022-09-29T22:07:48.466Z,9.34
2022-09-29T22:10:50.657Z,9.47
2022-09-29T22:13:52.703Z,9.59
2022-09-29T22:16:54.510Z,9.71
2022-09-29T22:19:56.400Z,9.76
2022-09-29T22:22:57.910Z,9.78
2022-09-29T22:26:00.670Z,9.77
2022-09-29T22:29:02.775Z,9.77
2022-09-29T22:32:04.318Z,9.82
2022-09-29T22:35:05.923Z,9.80
2022-09-29T22:38:08.190Z,9.82
2022-09-29T22:41:10.746Z,10.00
2022-09-29T22:44:12.476Z,10.14
2022-09-29T22:47:13.982Z,9.92
2022-09-29T22:50:15.464Z,9.79
2022-09-29T22:53:16.985Z,9.72
2022-09-29T22:56:19.558Z,9.63
2022-09-29T22:59:21.898Z,9.46
2022-09-29T23:02:23.517Z,9.43
2022-09-29T23:05:25.100Z,9.58
2022-09-29T23:08:26.746Z,9.51
2022-09-29T23:11:30.065Z,9.39
2022-09-29T23:14:31.655Z,9.33
2022-09-29T23:17:33.322Z,9.40
2022-09-29T23:20:34.854Z,9.44
2022-09-29T23:23:36.576Z,9.29
2022-09-29T23:26:38.120Z,9.14
2022-09-29T23:29:39.689Z,9.01
2022-09-29T23:32:41.328Z,8.95
2022-09-29T23:35:42.887Z,9.09
2022-09-29T23:39:02.870Z,9.09
2022-09-29T23:42:04.501Z,9.13
2022-09-29T23:45:06.224Z,9.00
2022-09-29T23:48:07.790Z,8.82
2022-09-29T23:51:09.385Z,8.73
2022-09-29T23:54:12.095Z,8.67
2022-09-29T23:57:13.648Z,8.72
